Time;durP1;ratioP1;P1;durP2;ratioP2;P2;SDS_P1;SDS_P2;PMS_P1;PMS_P2;Temp;Humidity;BMP_temperature;BMP_pressure;BME280_temperature;BME280_humidity;BME280_pressure;Samples;Min_cycle;Max_cycle;Signal;HPM_P1;HPM_P2
2023/12/11 06:00:13;;;;;;;1.50;1.10;;;;;;;;;;6190035;23;21486;-73
2023/12/11 06:02:39;;;;;;;4.10;1.30;;;;;;;;;;5014206;28;20434;-77
2023/12/11 06:05:06;;;;;;;3.10;1.40;;;;;;;;;;5015391;28;20403;-77
2023/12/11 06:07:32;;;;;;;4.80;1.10;;;;;;;;;;5015243;28;20658;-78
2023/12/11 06:09:58;;;;;;;3.20;1.70;;;;;;;;;;5018202;28;20783;-77
2023/12/11 06:12:24;;;;;;;3.43;1.77;;;;;;;;;;5017312;28;20520;-77
2023/12/11 06:14:50;;;;;;;1.53;1.40;;;;;;;;;;5020128;28;20406;-80
2023/12/11 06:17:16;;;;;;;2.10;1.70;;;;;;;;;;5024327;28;20925;-80
2023/12/11 06:19:42;;;;;;;3.73;2.00;;;;;;;;;;5021103;28;20936;-79
2023/12/11 06:22:08;;;;;;;3.87;1.70;;;;;;;;;;5016903;28;20434;-79
2023/12/11 06:24:34;;;;;;;2.33;1.33;;;;;;;;;;5019595;28;20883;-80
2023/12/11 06:27:00;;;;;;;1.73;1.60;;;;;;;;;;5020018;28;20454;-80
2023/12/11 06:29:27;;;;;;;4.00;1.70;;;;;;;;;;5021046;28;20441;-80
2023/12/11 06:31:53;;;;;;;5.30;1.70;;;;;;;;;;5020194;28;20480;-80
2023/12/11 06:34:19;;;;;;;1.70;1.60;;;;;;;;;;5021097;28;20450;-80
2023/12/11 06:36:45;;;;;;;2.33;1.70;;;;;;;;;;5020635;28;20418;-80
2023/12/11 06:39:11;;;;;;;2.50;1.70;;;;;;;;;;5028117;28;20497;-80
2023/12/11 06:41:37;;;;;;;1.57;1.40;;;;;;;;;;5036415;28;20422;-80
2023/12/11 06:44:03;;;;;;;2.37;2.00;;;;;;;;;;5037819;28;20425;-80
2023/12/11 06:46:29;;;;;;;2.37;1.63;;;;;;;;;;5023203;28;20492;-80
2023/12/11 06:48:58;;;;;;;2.20;1.90;;;;;;;;;;5021323;28;20442;-80
2023/12/11 06:51:24;;;;;;;2.73;1.57;;;;;;;;;;5019318;28;20525;-80
2023/12/11 06:53:51;;;;;;;2.63;1.60;;;;;;;;;;5020108;28;20424;-80
2023/12/11 06:56:18;;;;;;;2.77;1.70;;;;;;;;;;5020445;28;20417;-80
2023/12/11 06:58:44;;;;;;;2.50;1.50;;;;;;;;;;5019970;28;20489;-80
2023/12/11 07:01:10;;;;;;;3.70;1.80;;;;;;;;;;5019991;28;20482;-80
2023/12/11 07:03:36;;;;;;;2.80;1.53;;;;;;;;;;5019520;28;20886;-80
2023/12/11 07:06:02;;;;;;;4.03;2.57;;;;;;;;;;5020458;28;20821;-80
2023/12/11 07:08:28;;;;;;;3.27;1.90;;;;;;;;;;5019914;28;20418;-78
2023/12/11 07:10:54;;;;;;;6.00;2.00;;;;;;;;;;5018103;28;20988;-78
2023/12/11 07:13:20;;;;;;;2.07;1.90;;;;;;;;;;5014078;28;20413;-78
2023/12/11 07:15:46;;;;;;;1.90;1.83;;;;;;;;;;5014555;28;20446;-77
2023/12/11 07:18:13;;;;;;;3.13;1.87;;;;;;;;;;5015232;28;20442;-78
2023/12/11 07:20:40;;;;;;;2.00;1.50;;;;;;;;;;5015625;28;20845;-78
2023/12/11 07:23:07;;;;;;;6.93;4.20;;;;;;;;;;5016176;28;20437;-78
2023/12/11 07:25:33;;;;;;;7.33;2.90;;;;;;;;;;5014948;28;20418;-78
2023/12/11 07:28:00;;;;;;;4.60;2.67;;;;;;;;;;5014246;28;20928;-78
2023/12/11 07:30:27;;;;;;;3.70;2.20;;;;;;;;;;5020821;28;20410;-80
2023/12/11 07:32:53;;;;;;;2.50;2.00;;;;;;;;;;5018860;28;20407;-80
2023/12/11 07:35:19;;;;;;;1.70;1.60;;;;;;;;;;5018145;28;20417;-81
2023/12/11 07:37:45;;;;;;;3.73;2.57;;;;;;;;;;5016740;28;20524;-81
2023/12/11 07:40:11;;;;;;;4.20;2.37;;;;;;;;;;5017782;28;20922;-81
2023/12/11 07:42:37;;;;;;;5.70;2.73;;;;;;;;;;5016191;28;20418;-79
2023/12/11 07:45:06;;;;;;;6.33;1.90;;;;;;;;;;5014264;28;20417;-79
2023/12/11 07:47:33;;;;;;;2.63;1.73;;;;;;;;;;5014877;28;20493;-80
2023/12/11 07:49:59;;;;;;;2.53;1.60;;;;;;;;;;5013776;28;20453;-79
2023/12/11 07:52:29;;;;;;;2.93;2.10;;;;;;;;;;5014432;28;20499;-80
2023/12/11 07:54:55;;;;;;;5.63;1.90;;;;;;;;;;5015046;28;20448;-79
2023/12/11 07:57:21;;;;;;;8.00;1.73;;;;;;;;;;5013889;28;20812;-80
2023/12/11 07:59:47;;;;;;;5.00;1.97;;;;;;;;;;5014407;28;20429;-80
2023/12/11 08:02:13;;;;;;;2.63;1.87;;;;;;;;;;5017644;28;20985;-80
2023/12/11 08:04:39;;;;;;;2.33;1.90;;;;;;;;;;5017305;28;20501;-80
2023/12/11 08:07:05;;;;;;;1.87;1.73;;;;;;;;;;5017076;28;20462;-80
2023/12/11 08:09:36;;;;;;;2.97;1.97;;;;;;;;;;5018303;28;20417;-80
2023/12/11 08:12:02;;;;;;;1.80;1.70;;;;;;;;;;5017424;28;20465;-80
2023/12/11 08:14:28;;;;;;;2.00;1.73;;;;;;;;;;5016747;28;20422;-80
2023/12/11 08:16:54;;;;;;;3.57;2.27;;;;;;;;;;5018118;28;20414;-81
2023/12/11 08:19:20;;;;;;;2.10;1.77;;;;;;;;;;5018620;28;20425;-80
2023/12/11 08:21:46;;;;;;;2.33;1.70;;;;;;;;;;5016766;28;20433;-80
2023/12/11 08:24:12;;;;;;;3.47;2.00;;;;;;;;;;5016886;28;20992;-80
2023/12/11 08:26:39;;;;;;;2.80;1.90;;;;;;;;;;5016751;28;20465;-80
2023/12/11 08:29:05;;;;;;;4.50;1.70;;;;;;;;;;5018698;28;20406;-80
2023/12/11 08:31:31;;;;;;;2.40;1.77;;;;;;;;;;5018200;28;20956;-80
2023/12/11 08:33:57;;;;;;;3.50;1.67;;;;;;;;;;5017228;28;20421;-79
2023/12/11 08:36:23;;;;;;;9.30;1.40;;;;;;;;;;5017374;28;20456;-79
2023/12/11 08:38:49;;;;;;;1.17;1.13;;;;;;;;;;5017059;28;20477;-79
2023/12/11 08:41:15;;;;;;;2.00;1.43;;;;;;;;;;5018005;28;20497;-79
2023/12/11 08:43:42;;;;;;;1.70;1.20;;;;;;;;;;5016661;28;20414;-79
2023/12/11 08:46:08;;;;;;;1.70;1.00;;;;;;;;;;5020743;28;20450;-80
2023/12/11 08:48:34;;;;;;;2.10;1.10;;;;;;;;;;5026461;28;20418;-80
2023/12/11 08:51:00;;;;;;;2.00;1.27;;;;;;;;;;5021682;28;21000;-80
2023/12/11 08:53:26;;;;;;;2.17;1.10;;;;;;;;;;5021323;28;20465;-80
2023/12/11 08:55:53;;;;;;;5.03;1.60;;;;;;;;;;5021683;28;20441;-80
2023/12/11 08:58:19;;;;;;;1.43;1.00;;;;;;;;;;5019853;28;20936;-80
2023/12/11 09:00:45;;;;;;;3.90;1.33;;;;;;;;;;5020518;28;20837;-80
2023/12/11 09:03:11;;;;;;;2.83;1.23;;;;;;;;;;5021764;28;20422;-80
2023/12/11 09:05:37;;;;;;;7.80;3.00;;;;;;;;;;5021332;28;20440;-80
2023/12/11 09:08:04;;;;;;;2.17;1.30;;;;;;;;;;5020640;28;20438;-80
2023/12/11 09:10:30;;;;;;;3.33;1.63;;;;;;;;;;5019490;28;20441;-79
2023/12/11 09:12:56;;;;;;;1.63;1.20;;;;;;;;;;5017224;28;20430;-79
2023/12/11 09:15:22;;;;;;;1.57;1.40;;;;;;;;;;5018811;28;20418;-79
2023/12/11 09:17:48;;;;;;;2.33;1.27;;;;;;;;;;5023537;28;20417;-79
2023/12/11 09:20:14;;;;;;;5.93;2.23;;;;;;;;;;5025915;28;20425;-79
2023/12/11 09:22:41;;;;;;;1.53;1.13;;;;;;;;;;5020213;28;20425;-80
2023/12/11 09:25:07;;;;;;;15.53;1.40;;;;;;;;;;5018944;28;20983;-79
2023/12/11 09:27:33;;;;;;;2.10;1.40;;;;;;;;;;5018761;28;20592;-79
2023/12/11 09:29:59;;;;;;;4.43;1.53;;;;;;;;;;5029228;28;20418;-80
2023/12/11 09:32:25;;;;;;;4.83;1.80;;;;;;;;;;5028097;28;20516;-80
2023/12/11 09:34:51;;;;;;;3.83;1.90;;;;;;;;;;5022315;28;20413;-80
2023/12/11 09:37:19;;;;;;;2.10;1.73;;;;;;;;;;5025908;28;20489;-80
2023/12/11 09:39:45;;;;;;;3.13;1.70;;;;;;;;;;5030944;28;20905;-80
2023/12/11 09:42:13;;;;;;;4.80;1.40;;;;;;;;;;5026763;28;20448;-80
2023/12/11 09:44:40;;;;;;;2.67;1.37;;;;;;;;;;5020777;28;20429;-80
2023/12/11 09:47:16;;;;;;;2.43;1.50;;;;;;;;;;5019893;28;20984;-80
2023/12/11 09:49:42;;;;;;;2.37;1.77;;;;;;;;;;5020301;28;20777;-80
2023/12/11 09:52:08;;;;;;;4.83;1.90;;;;;;;;;;5021388;28;20484;-80
2023/12/11 09:54:34;;;;;;;2.60;1.70;;;;;;;;;;5021421;28;20461;-80
2023/12/11 09:57:00;;;;;;;3.30;1.70;;;;;;;;;;5020501;28;20465;-80
2023/12/11 09:59:27;;;;;;;1.63;1.60;;;;;;;;;;5020340;28;20835;-80
2023/12/11 10:01:53;;;;;;;5.43;1.63;;;;;;;;;;5019606;28;20532;-80
2023/12/11 10:04:19;;;;;;;6.57;2.37;;;;;;;;;;5021146;28;20422;-80
2023/12/11 10:06:45;;;;;;;2.73;1.83;;;;;;;;;;5020182;28;20534;-80
2023/12/11 10:09:30;;;;;;;4.37;1.90;;;;;;;;;;5019654;28;20901;-78
2023/12/11 10:12:00;;;;;;;2.90;1.60;;;;;;;;;;5019305;28;20460;-78
2023/12/11 10:14:28;;;;;;;4.10;1.97;;;;;;;;;;5016894;28;20418;-79
2023/12/11 10:16:54;;;;;;;2.93;1.80;;;;;;;;;;5015988;28;20418;-79
2023/12/11 10:19:31;;;;;;;5.27;1.70;;;;;;;;;;5014530;28;20415;-78
2023/12/11 10:21:57;;;;;;;3.10;1.70;;;;;;;;;;5014793;28;20865;-77
2023/12/11 10:24:23;;;;;;;1.73;1.50;;;;;;;;;;5015377;28;20418;-81
2023/12/11 10:26:55;;;;;;;4.40;1.47;;;;;;;;;;5014419;28;20456;-80
2023/12/11 10:29:26;;;;;;;2.73;1.20;;;;;;;;;;5015708;28;20429;-79
2023/12/11 10:31:52;;;;;;;6.80;1.30;;;;;;;;;;5015461;28;20443;-79
2023/12/11 10:34:18;;;;;;;2.50;1.70;;;;;;;;;;5017061;28;20486;-78
2023/12/11 10:36:49;;;;;;;3.23;1.57;;;;;;;;;;5012924;28;20417;-78
2023/12/11 10:39:15;;;;;;;4.00;1.53;;;;;;;;;;5012748;28;20414;-79
2023/12/11 10:41:44;;;;;;;3.43;1.30;;;;;;;;;;5018552;28;20457;-78
2023/12/11 10:44:19;;;;;;;2.90;1.80;;;;;;;;;;5020179;28;20453;-78
2023/12/11 10:46:45;;;;;;;5.43;1.40;;;;;;;;;;5017606;28;20461;-78
2023/12/11 10:49:11;;;;;;;3.40;2.00;;;;;;;;;;5017389;28;20505;-78
2023/12/11 10:51:37;;;;;;;3.63;1.33;;;;;;;;;;5018042;28;20426;-78
2023/12/11 10:54:04;;;;;;;6.20;2.00;;;;;;;;;;5017331;28;20414;-78
2023/12/11 10:56:30;;;;;;;5.37;1.90;;;;;;;;;;5026544;28;20414;-78
2023/12/11 10:58:57;;;;;;;11.17;2.20;;;;;;;;;;5030671;28;20422;-78
2023/12/11 11:01:24;;;;;;;5.20;1.80;;;;;;;;;;5027274;28;20446;-77
2023/12/11 11:03:50;;;;;;;4.50;1.83;;;;;;;;;;5019277;28;20456;-77
2023/12/11 11:06:16;;;;;;;3.37;1.40;;;;;;;;;;5021164;28;20454;-78
2023/12/11 11:08:59;;;;;;;5.70;1.80;;;;;;;;;;5021474;28;20414;-77
2023/12/11 11:11:32;;;;;;;5.03;1.73;;;;;;;;;;5017660;28;20488;-77
2023/12/11 11:14:20;;;;;;;2.23;1.57;;;;;;;;;;5022263;28;20406;-77
2023/12/11 11:16:52;;;;;;;7.60;2.10;;;;;;;;;;5019965;28;20410;-77
2023/12/11 11:19:19;;;;;;;6.70;1.60;;;;;;;;;;5019734;28;20445;-77
2023/12/11 11:22:00;;;;;;;8.57;2.63;;;;;;;;;;5016153;28;20440;-78
2023/12/11 11:24:26;;;;;;;3.57;1.87;;;;;;;;;;5025958;28;20434;-78
2023/12/11 11:26:52;;;;;;;5.70;2.50;;;;;;;;;;5029265;28;20437;-77
2023/12/11 11:29:41;;;;;;;2.03;1.37;;;;;;;;;;5033673;28;20458;-77
2023/12/11 11:32:07;;;;;;;5.80;1.80;;;;;;;;;;5036368;28;20429;-77
2023/12/11 11:34:43;;;;;;;3.53;1.70;;;;;;;;;;5029051;28;20412;-79
2023/12/11 11:37:10;;;;;;;4.80;1.50;;;;;;;;;;5018827;28;20842;-78
2023/12/11 11:39:59;;;;;;;3.97;1.73;;;;;;;;;;5018298;28;20556;-79
2023/12/11 11:42:28;;;;;;;10.03;2.27;;;;;;;;;;5010320;28;20532;-79
2023/12/11 11:44:56;;;;;;;6.43;2.07;;;;;;;;;;5018403;28;20418;-78
2023/12/11 11:47:22;;;;;;;6.83;1.80;;;;;;;;;;5016120;28;20461;-78
2023/12/11 11:50:09;;;;;;;5.37;2.17;;;;;;;;;;5077352;28;20543;-78
2023/12/11 11:52:38;;;;;;;10.20;2.00;;;;;;;;;;5089122;28;20468;-78
2023/12/11 11:55:23;;;;;;;12.10;2.07;;;;;;;;;;5079371;28;20483;-79
2023/12/11 11:57:49;;;;;;;13.20;1.77;;;;;;;;;;5075391;28;20403;-79
2023/12/11 12:00:21;;;;;;;8.03;2.03;;;;;;;;;;5072411;28;20411;-79
2023/12/11 12:02:47;;;;;;;11.50;2.33;;;;;;;;;;5069468;28;20407;-79
2023/12/11 12:05:14;;;;;;;6.37;1.70;;;;;;;;;;5069802;28;20799;-79
2023/12/11 12:07:40;;;;;;;7.07;2.33;;;;;;;;;;5069956;28;20939;-78
2023/12/11 12:10:07;;;;;;;10.73;2.27;;;;;;;;;;5069990;28;20408;-79
2023/12/11 12:12:33;;;;;;;6.77;2.60;;;;;;;;;;5068169;28;20439;-79
2023/12/11 12:15:00;;;;;;;9.33;2.30;;;;;;;;;;5069533;28;20417;-80
2023/12/11 12:17:26;;;;;;;4.70;2.00;;;;;;;;;;5069411;28;20414;-79
2023/12/11 12:19:52;;;;;;;5.77;2.30;;;;;;;;;;5068272;28;20816;-79
2023/12/11 12:22:19;;;;;;;5.70;1.80;;;;;;;;;;5068205;28;20439;-79
2023/12/11 12:24:48;;;;;;;9.53;2.30;;;;;;;;;;5069260;28;20477;-81
2023/12/11 12:27:18;;;;;;;7.10;2.20;;;;;;;;;;5069313;28;20412;-78
2023/12/11 12:29:44;;;;;;;10.27;2.10;;;;;;;;;;5068921;28;20950;-79
2023/12/11 12:32:12;;;;;;;6.20;2.17;;;;;;;;;;5072714;28;20765;-78
2023/12/11 12:34:39;;;;;;;6.33;2.30;;;;;;;;;;5070066;28;20411;-78
2023/12/11 12:37:05;;;;;;;5.73;2.10;;;;;;;;;;5071011;28;20787;-78
2023/12/11 12:39:31;;;;;;;8.17;2.43;;;;;;;;;;5069962;28;20458;-80
2023/12/11 12:41:57;;;;;;;7.83;3.57;;;;;;;;;;5068194;28;20454;-80
2023/12/11 12:44:23;;;;;;;15.33;2.80;;;;;;;;;;5068294;28;20899;-77
2023/12/11 12:46:50;;;;;;;6.03;1.90;;;;;;;;;;5067631;28;20422;-80
2023/12/11 12:49:17;;;;;;;6.43;2.23;;;;;;;;;;5066171;28;20471;-78
2023/12/11 12:51:43;;;;;;;7.70;2.27;;;;;;;;;;5066194;28;20451;-78
2023/12/11 12:54:10;;;;;;;6.73;1.90;;;;;;;;;;5067588;28;20415;-78
2023/12/11 12:56:37;;;;;;;9.73;2.33;;;;;;;;;;5068109;28;20503;-78
2023/12/11 12:59:03;;;;;;;7.20;2.03;;;;;;;;;;5067221;28;20443;-78
2023/12/11 13:01:36;;;;;;;7.17;2.70;;;;;;;;;;5053099;28;20432;-79
2023/12/11 13:04:02;;;;;;;10.07;2.50;;;;;;;;;;5054488;28;20479;-78
2023/12/11 13:06:28;;;;;;;8.03;2.20;;;;;;;;;;5054255;28;20462;-78
2023/12/11 13:08:54;;;;;;;11.37;1.97;;;;;;;;;;5053751;28;20456;-78
2023/12/11 13:11:20;;;;;;;5.70;2.47;;;;;;;;;;5052710;28;20439;-79
2023/12/11 13:13:54;;;;;;;4.50;1.77;;;;;;;;;;5054508;28;20405;-78
2023/12/11 13:16:20;;;;;;;5.30;2.23;;;;;;;;;;5054123;28;20408;-78
2023/12/11 13:18:50;;;;;;;10.10;3.17;;;;;;;;;;5053918;28;20463;-78
2023/12/11 13:21:16;;;;;;;7.47;2.20;;;;;;;;;;5052448;28;20955;-79
2023/12/11 13:23:42;;;;;;;7.00;2.40;;;;;;;;;;5054037;28;20412;-81
2023/12/11 13:26:08;;;;;;;5.30;2.00;;;;;;;;;;5052533;28;20423;-77
2023/12/11 13:28:34;;;;;;;11.23;2.37;;;;;;;;;;5053841;28;20547;-78
2023/12/11 13:30:59;;;;;;;5.53;2.10;;;;;;;;;;5053813;28;20428;-78
2023/12/11 13:33:27;;;;;;;7.67;2.70;;;;;;;;;;5052547;28;20416;-78
2023/12/11 13:35:53;;;;;;;3.47;1.93;;;;;;;;;;5053777;28;20417;-78
2023/12/11 13:38:19;;;;;;;6.47;2.40;;;;;;;;;;5055571;28;20412;-79
2023/12/11 13:40:45;;;;;;;6.73;1.90;;;;;;;;;;5055871;28;20432;-79
2023/12/11 13:43:11;;;;;;;5.23;2.60;;;;;;;;;;5053805;28;20456;-79
2023/12/11 13:45:37;;;;;;;13.57;2.30;;;;;;;;;;5054248;28;20424;-79
2023/12/11 13:48:04;;;;;;;4.40;1.83;;;;;;;;;;5056466;28;20574;-79
2023/12/11 13:50:30;;;;;;;4.27;1.77;;;;;;;;;;5056734;28;20428;-79
2023/12/11 13:52:56;;;;;;;11.20;2.40;;;;;;;;;;5054570;28;20408;-82
2023/12/11 13:55:22;;;;;;;6.40;3.60;;;;;;;;;;5053616;28;20464;-82
2023/12/11 13:57:48;;;;;;;9.40;2.37;;;;;;;;;;5055754;28;20412;-79
2023/12/11 14:00:15;;;;;;;10.80;2.80;;;;;;;;;;5054659;28;20412;-79
2023/12/11 14:02:43;;;;;;;8.50;2.30;;;;;;;;;;5054799;28;20540;-79
2023/12/11 14:05:14;;;;;;;8.83;2.23;;;;;;;;;;5052501;28;20416;-79
2023/12/11 14:07:40;;;;;;;9.43;2.47;;;;;;;;;;5052889;28;20824;-78
2023/12/11 14:10:07;;;;;;;12.40;2.97;;;;;;;;;;5051903;28;20474;-78
2023/12/11 14:12:34;;;;;;;10.77;2.40;;;;;;;;;;5052135;28;20591;-78
2023/12/11 14:15:00;;;;;;;5.30;2.80;;;;;;;;;;5053185;28;20451;-78
2023/12/11 14:17:26;;;;;;;8.33;2.50;;;;;;;;;;5053345;28;20400;-79
2023/12/11 14:19:52;;;;;;;18.73;3.33;;;;;;;;;;5053011;28;20415;-79
2023/12/11 14:22:18;;;;;;;10.00;2.20;;;;;;;;;;5052799;28;20428;-79
2023/12/11 14:24:44;;;;;;;8.47;2.73;;;;;;;;;;5051846;28;20447;-79
2023/12/11 14:27:12;;;;;;;6.93;2.83;;;;;;;;;;5053479;28;20791;-78
2023/12/11 14:29:38;;;;;;;9.23;3.47;;;;;;;;;;5052893;28;20463;-78
2023/12/11 14:32:04;;;;;;;9.33;2.70;;;;;;;;;;5051995;28;20526;-77
2023/12/11 14:34:30;;;;;;;15.40;3.60;;;;;;;;;;5054955;28;20467;-79
2023/12/11 14:36:56;;;;;;;11.10;2.70;;;;;;;;;;5054666;28;20404;-79
2023/12/11 14:39:23;;;;;;;6.10;2.80;;;;;;;;;;5055417;28;20408;-79
2023/12/11 14:41:49;;;;;;;19.03;3.40;;;;;;;;;;5054309;28;20440;-78
2023/12/11 14:44:15;;;;;;;10.97;2.23;;;;;;;;;;5060327;28;20901;-79
2023/12/11 14:46:41;;;;;;;4.70;2.47;;;;;;;;;;5056050;28;20420;-79
2023/12/11 14:49:07;;;;;;;10.53;2.80;;;;;;;;;;5053257;28;20460;-79
2023/12/11 14:51:38;;;;;;;11.57;2.50;;;;;;;;;;5054012;28;20562;-81
2023/12/11 14:54:05;;;;;;;11.47;2.97;;;;;;;;;;5052557;28;20419;-79
2023/12/11 14:56:31;;;;;;;7.30;2.17;;;;;;;;;;5052025;28;20427;-80
2023/12/11 14:58:57;;;;;;;9.70;2.80;;;;;;;;;;5052502;28;20423;-80
2023/12/11 15:01:23;;;;;;;10.47;2.83;;;;;;;;;;5053333;28;20864;-81
2023/12/11 15:03:49;;;;;;;17.23;2.83;;;;;;;;;;5052727;28;20930;-81
2023/12/11 15:06:16;;;;;;;18.10;3.37;;;;;;;;;;5053532;28;20417;-80
2023/12/11 15:08:42;;;;;;;18.57;3.10;;;;;;;;;;5053940;28;20496;-81
2023/12/11 15:11:09;;;;;;;19.53;3.77;;;;;;;;;;5052849;28;20846;-79
2023/12/11 15:13:35;;;;;;;18.27;3.93;;;;;;;;;;5053297;28;20412;-79
2023/12/11 15:16:01;;;;;;;18.17;4.27;;;;;;;;;;5053178;28;20408;-79
2023/12/11 15:18:28;;;;;;;10.60;2.93;;;;;;;;;;5053727;28;20404;-79
2023/12/11 15:20:55;;;;;;;12.03;2.83;;;;;;;;;;5053845;28;20459;-80
2023/12/11 15:23:21;;;;;;;9.43;3.17;;;;;;;;;;5053709;28;20890;-79
2023/12/11 15:25:47;;;;;;;9.63;2.50;;;;;;;;;;5053057;28;20473;-79
2023/12/11 15:28:14;;;;;;;15.50;3.20;;;;;;;;;;5053258;28;20455;-79
2023/12/11 15:30:40;;;;;;;9.10;3.43;;;;;;;;;;5051426;28;20424;-80
2023/12/11 15:33:08;;;;;;;18.87;4.23;;;;;;;;;;5051753;28;20902;-80
2023/12/11 15:35:34;;;;;;;14.07;3.07;;;;;;;;;;5050487;28;21021;-78
2023/12/11 15:38:00;;;;;;;16.20;3.57;;;;;;;;;;5052039;28;20754;-78
2023/12/11 15:40:27;;;;;;;16.90;3.50;;;;;;;;;;5051610;28;20470;-79
2023/12/11 15:42:54;;;;;;;13.60;3.10;;;;;;;;;;5052411;28;20409;-79
2023/12/11 15:45:20;;;;;;;10.73;3.60;;;;;;;;;;5050641;28;20416;-78
2023/12/11 15:47:46;;;;;;;19.23;3.90;;;;;;;;;;5052056;28;20405;-78
2023/12/11 15:50:12;;;;;;;16.47;3.63;;;;;;;;;;5052549;28;20495;-78
2023/12/11 15:52:38;;;;;;;18.90;3.63;;;;;;;;;;5051042;28;20404;-78
2023/12/11 15:55:04;;;;;;;11.77;3.20;;;;;;;;;;5050614;28;20982;-78
2023/12/11 15:57:31;;;;;;;22.43;4.57;;;;;;;;;;5051593;28;20455;-78
2023/12/11 15:59:57;;;;;;;19.10;4.53;;;;;;;;;;5050241;28;20427;-78
2023/12/11 16:02:23;;;;;;;14.70;4.10;;;;;;;;;;5051573;28;20432;-78
2023/12/11 16:04:49;;;;;;;10.70;3.03;;;;;;;;;;5050129;28;20966;-79
2023/12/11 16:07:15;;;;;;;7.80;2.47;;;;;;;;;;5049967;28;20416;-79
2023/12/11 16:09:41;;;;;;;15.53;4.37;;;;;;;;;;5050373;28;20462;-79
2023/12/11 16:12:07;;;;;;;20.20;4.00;;;;;;;;;;5050226;28;20464;-80
2023/12/11 16:14:33;;;;;;;13.40;3.57;;;;;;;;;;5051927;28;20791;-80
2023/12/11 16:16:59;;;;;;;18.07;3.57;;;;;;;;;;5051550;28;20508;-81
2023/12/11 16:19:25;;;;;;;10.27;3.20;;;;;;;;;;5055885;28;20439;-81
2023/12/11 16:21:52;;;;;;;17.23;4.10;;;;;;;;;;5074698;28;20439;-83
2023/12/11 16:24:18;;;;;;;10.13;4.73;;;;;;;;;;5074481;28;20401;-83
2023/12/11 16:26:44;;;;;;;10.80;3.10;;;;;;;;;;5065249;28;20447;-82
2023/12/11 16:29:10;;;;;;;14.20;3.00;;;;;;;;;;5059534;28;20460;-78
2023/12/11 16:31:36;;;;;;;18.37;3.80;;;;;;;;;;5053438;28;20769;-79
2023/12/11 16:34:02;;;;;;;15.90;3.30;;;;;;;;;;5053494;28;20827;-79
2023/12/11 16:36:28;;;;;;;12.43;3.27;;;;;;;;;;5057026;28;20411;-79
2023/12/11 16:38:54;;;;;;;16.53;3.50;;;;;;;;;;5059060;28;20416;-79
2023/12/11 16:41:27;;;;;;;15.87;3.33;;;;;;;;;;5061662;28;20443;-79
2023/12/11 16:43:54;;;;;;;19.97;3.40;;;;;;;;;;5058496;28;20415;-79
2023/12/11 16:46:23;;;;;;;5.60;2.80;;;;;;;;;;5055979;28;20849;-79
2023/12/11 16:48:49;;;;;;;8.33;3.23;;;;;;;;;;5055731;28;20974;-79
2023/12/11 16:51:15;;;;;;;13.53;2.97;;;;;;;;;;5056054;28;20435;-79
2023/12/11 16:53:41;;;;;;;14.00;2.57;;;;;;;;;;5055242;28;20408;-79
2023/12/11 16:56:08;;;;;;;16.93;3.20;;;;;;;;;;5055278;28;20416;-80
2023/12/11 16:58:37;;;;;;;12.20;3.30;;;;;;;;;;5056150;28;20408;-79
2023/12/11 17:01:03;;;;;;;12.90;3.13;;;;;;;;;;5054805;28;20846;-78
2023/12/11 17:03:29;;;;;;;20.20;3.10;;;;;;;;;;5055772;28;20495;-79
2023/12/11 17:05:55;;;;;;;14.90;3.80;;;;;;;;;;5056900;28;20412;-78
2023/12/11 17:08:21;;;;;;;19.43;5.07;;;;;;;;;;5054320;28;20475;-78
2023/12/11 17:10:47;;;;;;;18.33;3.77;;;;;;;;;;5053747;28;20497;-78
2023/12/11 17:13:13;;;;;;;19.27;4.00;;;;;;;;;;5057341;28;20411;-78
2023/12/11 17:15:39;;;;;;;12.13;4.00;;;;;;;;;;5054024;28;20806;-78
2023/12/11 17:18:05;;;;;;;13.73;3.33;;;;;;;;;;5055762;28;20427;-79
2023/12/11 17:20:31;;;;;;;13.50;3.60;;;;;;;;;;5053728;28;20818;-79
2023/12/11 17:22:57;;;;;;;13.50;3.90;;;;;;;;;;5055773;28;20880;-79
2023/12/11 17:25:23;;;;;;;18.03;4.10;;;;;;;;;;5055259;28;20413;-79
2023/12/11 17:27:49;;;;;;;14.83;4.03;;;;;;;;;;5054816;28;20404;-79
2023/12/11 17:30:15;;;;;;;20.30;4.17;;;;;;;;;;5054962;28;20455;-79
2023/12/11 17:32:41;;;;;;;14.20;3.80;;;;;;;;;;5055018;28;20468;-79
2023/12/11 17:35:07;;;;;;;13.97;4.00;;;;;;;;;;5055367;28;20432;-78
2023/12/11 17:37:33;;;;;;;10.03;3.77;;;;;;;;;;5055139;28;20439;-79
2023/12/11 17:39:59;;;;;;;16.87;5.77;;;;;;;;;;5053541;28;20416;-79
2023/12/11 17:42:26;;;;;;;12.73;3.53;;;;;;;;;;5054769;28;20443;-79
2023/12/11 17:44:52;;;;;;;11.67;3.90;;;;;;;;;;5054541;28;20413;-81
2023/12/11 17:47:18;;;;;;;21.50;3.83;;;;;;;;;;5054866;28;20420;-79
2023/12/11 17:49:44;;;;;;;12.00;4.20;;;;;;;;;;5054157;28;20601;-78
2023/12/11 17:52:10;;;;;;;10.80;4.00;;;;;;;;;;5055648;28;20489;-80
2023/12/11 17:54:37;;;;;;;16.13;5.23;;;;;;;;;;5052394;28;20416;-75
2023/12/11 17:57:03;;;;;;;14.57;5.70;;;;;;;;;;5053459;28;20756;-75
2023/12/11 17:59:30;;;;;;;11.13;4.40;;;;;;;;;;5055024;28;20411;-75
2023/12/11 18:01:56;;;;;;;23.90;3.77;;;;;;;;;;5056078;28;20432;-73
2023/12/11 18:04:22;;;;;;;23.80;4.30;;;;;;;;;;5054149;28;20768;-77
2023/12/11 18:06:48;;;;;;;13.10;4.33;;;;;;;;;;5047435;28;20440;-76
2023/12/11 18:09:14;;;;;;;16.53;4.20;;;;;;;;;;5040041;28;20470;-77
2023/12/11 18:11:40;;;;;;;19.20;3.90;;;;;;;;;;5053684;28;20518;-76
2023/12/11 18:14:06;;;;;;;11.30;3.10;;;;;;;;;;5050239;28;20465;-76
2023/12/11 18:16:32;;;;;;;14.23;2.93;;;;;;;;;;5052652;28;20776;-76
2023/12/11 18:18:58;;;;;;;16.50;3.70;;;;;;;;;;5052546;28;20515;-76
2023/12/11 18:21:25;;;;;;;12.03;4.10;;;;;;;;;;5052582;28;20962;-76
2023/12/11 18:23:51;;;;;;;18.60;4.20;;;;;;;;;;5052858;28;20428;-76
2023/12/11 18:26:17;;;;;;;14.93;3.53;;;;;;;;;;5044541;28;20460;-76
2023/12/11 18:28:43;;;;;;;11.17;3.10;;;;;;;;;;5052937;28;20475;-77
2023/12/11 18:31:09;;;;;;;15.50;4.13;;;;;;;;;;5052641;28;20431;-77
2023/12/11 18:33:35;;;;;;;10.30;3.77;;;;;;;;;;5052498;28;20802;-77
2023/12/11 18:36:01;;;;;;;15.63;2.90;;;;;;;;;;5054445;28;20423;-77
2023/12/11 18:38:27;;;;;;;12.67;3.27;;;;;;;;;;5046734;28;20512;-77
2023/12/11 18:40:53;;;;;;;11.40;4.13;;;;;;;;;;5050373;28;20815;-76
2023/12/11 18:43:20;;;;;;;9.80;3.37;;;;;;;;;;5051867;28;20427;-75
2023/12/11 18:45:46;;;;;;;12.63;3.40;;;;;;;;;;5051134;28;20458;-74
2023/12/11 18:48:12;;;;;;;13.83;3.37;;;;;;;;;;5050927;28;20479;-75
2023/12/11 18:50:38;;;;;;;16.20;3.40;;;;;;;;;;5052001;28;20430;-75
2023/12/11 18:53:04;;;;;;;20.23;3.43;;;;;;;;;;5043962;28;20409;-74
2023/12/11 18:55:31;;;;;;;11.70;3.50;;;;;;;;;;5052722;28;20903;-73
2023/12/11 18:57:58;;;;;;;23.80;4.77;;;;;;;;;;5044772;28;20420;-77
2023/12/11 19:00:24;;;;;;;11.63;3.37;;;;;;;;;;5051980;28;20413;-78
2023/12/11 19:02:50;;;;;;;9.10;3.13;;;;;;;;;;5046239;28;20431;-77
2023/12/11 19:05:16;;;;;;;10.07;3.40;;;;;;;;;;5052264;28;20416;-72
2023/12/11 19:07:42;;;;;;;20.73;4.17;;;;;;;;;;5051387;28;20434;-73
2023/12/11 19:10:08;;;;;;;12.97;3.50;;;;;;;;;;5062477;28;20872;-73
2023/12/11 19:12:34;;;;;;;8.80;3.63;;;;;;;;;;5071732;28;20463;-73
2023/12/11 19:15:00;;;;;;;11.53;3.77;;;;;;;;;;5038565;28;20455;-73
2023/12/11 19:17:26;;;;;;;8.53;3.40;;;;;;;;;;5030836;28;20783;-72
2023/12/11 19:19:52;;;;;;;16.43;4.30;;;;;;;;;;5050973;28;20416;-72
2023/12/11 19:22:18;;;;;;;14.70;4.73;;;;;;;;;;5051694;28;20475;-72
2023/12/11 19:24:44;;;;;;;18.60;4.17;;;;;;;;;;5050164;28;20424;-71
2023/12/11 19:27:10;;;;;;;14.27;4.70;;;;;;;;;;5032977;28;20429;-72
2023/12/11 19:29:36;;;;;;;20.73;4.83;;;;;;;;;;5036376;28;20463;-72
2023/12/11 19:32:02;;;;;;;17.87;4.43;;;;;;;;;;5049606;28;20439;-72
2023/12/11 19:34:28;;;;;;;18.47;4.80;;;;;;;;;;5043368;28;20413;-72
2023/12/11 19:36:54;;;;;;;12.03;3.67;;;;;;;;;;5045941;28;20423;-72
2023/12/11 19:39:20;;;;;;;17.60;4.10;;;;;;;;;;5051337;28;20412;-72
2023/12/11 19:41:46;;;;;;;16.37;3.93;;;;;;;;;;5051377;28;20788;-72
2023/12/11 19:44:11;;;;;;;14.07;4.03;;;;;;;;;;5049119;28;20510;-72
2023/12/11 19:46:45;;;;;;;17.60;5.20;;;;;;;;;;5040247;28;20420;-71
2023/12/11 19:49:11;;;;;;;13.53;4.27;;;;;;;;;;5050915;28;20463;-72
2023/12/11 19:51:37;;;;;;;19.57;4.43;;;;;;;;;;5044772;28;20498;-71
2023/12/11 19:54:04;;;;;;;13.13;4.13;;;;;;;;;;5041751;28;20419;-71
2023/12/11 19:56:30;;;;;;;14.33;4.57;;;;;;;;;;5039683;28;20412;-82
2023/12/11 19:58:56;;;;;;;17.83;4.13;;;;;;;;;;5046280;28;20487;-72
2023/12/11 20:01:26;;;;;;;24.07;4.53;;;;;;;;;;5051882;28;20439;-76
2023/12/11 20:03:52;;;;;;;19.40;4.07;;;;;;;;;;5052033;28;20454;-74
2023/12/11 20:06:22;;;;;;;19.60;4.27;;;;;;;;;;5045400;28;20540;-76
2023/12/11 20:08:48;;;;;;;20.77;4.30;;;;;;;;;;5043648;28;20464;-73
2023/12/11 20:11:14;;;;;;;20.83;5.30;;;;;;;;;;5061700;28;20434;-77
2023/12/11 20:13:40;;;;;;;20.73;6.53;;;;;;;;;;5055182;28;20633;-75
2023/12/11 20:16:06;;;;;;;14.43;4.40;;;;;;;;;;5063382;28;20416;-77
2023/12/11 20:18:32;;;;;;;23.87;5.37;;;;;;;;;;5055412;28;20434;-76
2023/12/11 20:20:58;;;;;;;17.40;5.33;;;;;;;;;;5060274;28;20928;-77
2023/12/11 20:23:24;;;;;;;22.27;5.07;;;;;;;;;;5061285;28;20420;-76
2023/12/11 20:25:50;;;;;;;18.00;5.43;;;;;;;;;;5062985;28;20445;-76
2023/12/11 20:28:16;;;;;;;14.90;4.37;;;;;;;;;;5054798;28;20468;-77
2023/12/11 20:30:42;;;;;;;17.30;5.03;;;;;;;;;;5054792;28;20530;-77
2023/12/11 20:33:09;;;;;;;13.10;4.53;;;;;;;;;;5054688;28;20469;-77
2023/12/11 20:35:35;;;;;;;14.67;4.47;;;;;;;;;;5054629;28;20427;-77